createdAt,value
2023-05-13T00:00:55.293Z,74.87
2023-05-13T00:03:23.684Z,73.58
2023-05-13T00:05:51.360Z,73.43
2023-05-13T00:08:20.146Z,74.41
2023-05-13T00:10:47.973Z,73.06
2023-05-13T00:13:15.438Z,72.23
2023-05-13T00:15:42.864Z,73.37
2023-05-13T00:18:10.594Z,74.43
2023-05-13T00:20:38.040Z,73.15
2023-05-13T00:23:05.503Z,73.61
2023-05-13T00:25:33.542Z,72.91
2023-05-13T00:28:01.085Z,72.50
2023-05-13T00:30:28.566Z,71.95
2023-05-13T00:32:56.294Z,71.62
2023-05-13T00:35:23.875Z,72.13
2023-05-13T00:37:51.334Z,73.79
2023-05-13T00:40:24.311Z,71.64
2023-05-13T00:42:52.394Z,71.55
2023-05-13T00:45:20.755Z,71.99
2023-05-13T00:47:49.595Z,71.05
2023-05-13T00:50:17.101Z,72.13
2023-05-13T00:52:44.922Z,71.44
2023-05-13T00:55:12.361Z,70.83
2023-05-13T00:57:42.602Z,71.59
2023-05-13T01:00:10.993Z,70.41
2023-05-13T01:02:43.018Z,69.80
2023-05-13T01:05:29.835Z,69.77
2023-05-13T01:08:03.265Z,70.02
2023-05-13T01:10:33.583Z,70.34
2023-05-13T01:13:04.788Z,72.03
2023-05-13T01:15:33.140Z,71.28
2023-05-13T01:18:13.788Z,71.11
2023-05-13T01:20:42.596Z,71.21
2023-05-13T01:23:13.278Z,70.77
2023-05-13T01:25:41.289Z,70.16
2023-05-13T01:28:09.811Z,69.86
2023-05-13T01:30:37.442Z,69.79
2023-05-13T01:33:05.585Z,69.53
2023-05-13T01:35:33.687Z,68.81
2023-05-13T01:38:02.786Z,69.51
2023-05-13T01:40:33.111Z,69.61
2023-05-13T01:43:01.371Z,69.77
2023-05-13T01:45:30.110Z,68.80
2023-05-13T01:47:58.391Z,68.41
2023-05-13T01:50:26.453Z,68.37
2023-05-13T01:52:54.066Z,68.68
2023-05-13T01:55:22.428Z,69.43
2023-05-13T01:57:50.037Z,70.36
2023-05-13T02:00:18.801Z,69.29
2023-05-13T02:02:50.242Z,69.22
2023-05-13T02:05:17.825Z,69.95
2023-05-13T02:07:45.308Z,68.73
2023-05-13T02:10:13.182Z,68.29
2023-05-13T02:12:40.681Z,69.62
2023-05-13T02:15:08.697Z,68.80
2023-05-13T02:17:36.418Z,69.70
2023-05-13T02:20:04.421Z,69.90
2023-05-13T02:22:32.443Z,70.47
2023-05-13T02:24:59.821Z,70.29
2023-05-13T02:27:27.279Z,72.52
2023-05-13T02:29:55.078Z,71.91
2023-05-13T02:32:22.613Z,70.93
2023-05-13T02:34:50.297Z,71.28
2023-05-13T02:37:18.096Z,70.39
2023-05-13T02:39:45.975Z,69.62
2023-05-13T02:42:15.292Z,69.92
2023-05-13T02:44:42.988Z,69.67
2023-05-13T02:47:12.262Z,70.18
2023-05-13T02:49:39.937Z,71.40
2023-05-13T02:52:07.713Z,70.93
2023-05-13T02:54:35.490Z,70.27
2023-05-13T02:57:03.384Z,69.87
2023-05-13T02:59:31.259Z,70.92
2023-05-13T03:01:58.710Z,71.49
2023-05-13T03:04:26.153Z,71.71
2023-05-13T03:06:53.918Z,70.83
2023-05-13T03:09:21.290Z,69.89
2023-05-13T03:11:48.897Z,70.35
2023-05-13T03:14:16.711Z,70.29
2023-05-13T03:16:44.999Z,70.29
2023-05-13T03:19:13.108Z,71.14
2023-05-13T03:21:41.115Z,70.12
2023-05-13T03:24:08.944Z,71.40
2023-05-13T03:26:36.435Z,70.43
2023-05-13T03:29:04.149Z,69.88
2023-05-13T03:31:32.294Z,69.77
2023-05-13T03:34:00.268Z,70.05
2023-05-13T03:36:29.135Z,69.49
2023-05-13T03:38:56.555Z,68.54
2023-05-13T03:41:24.018Z,68.77
2023-05-13T03:43:52.042Z,68.48
2023-05-13T03:46:19.701Z,69.58
2023-05-13T03:48:48.129Z,68.64
2023-05-13T03:51:16.003Z,68.20
2023-05-13T03:53:43.540Z,69.09
2023-05-13T03:56:11.057Z,68.61
2023-05-13T03:58:38.957Z,69.65
2023-05-13T04:01:07.253Z,70.95
2023-05-13T04:03:35.140Z,69.32
2023-05-13T04:06:03.114Z,69.68
2023-05-13T04:08:30.892Z,69.82
2023-05-13T04:10:58.612Z,69.43
2023-05-13T04:13:26.673Z,68.44
2023-05-13T04:15:55.427Z,67.87
2023-05-13T04:18:23.264Z,68.62
2023-05-13T04:20:50.741Z,69.84
2023-05-13T04:23:18.185Z,69.75
2023-05-13T04:25:53.262Z,69.36
2023-05-13T04:28:20.949Z,68.71
2023-05-13T04:30:48.766Z,68.10
2023-05-13T04:33:16.837Z,67.86
2023-05-13T04:35:44.501Z,67.86
2023-05-13T04:38:12.615Z,68.55
2023-05-13T04:40:40.061Z,68.28
2023-05-13T04:43:07.702Z,68.88
2023-05-13T04:45:37.094Z,68.32
2023-05-13T04:48:06.252Z,69.13
2023-05-13T04:50:33.775Z,69.92
2023-05-13T04:53:02.254Z,69.55
2023-05-13T04:55:29.821Z,69.64
2023-05-13T04:57:57.346Z,70.10
2023-05-13T05:00:25.241Z,69.61
2023-05-13T05:02:52.829Z,69.04
2023-05-13T05:05:20.493Z,69.02
2023-05-13T05:07:48.229Z,68.24
2023-05-13T05:10:15.744Z,70.04
2023-05-13T05:12:43.510Z,69.32
2023-05-13T05:15:15.831Z,69.94
2023-05-13T05:17:44.487Z,69.44
2023-05-13T05:20:13.364Z,69.73
2023-05-13T05:22:42.197Z,71.32
2023-05-13T05:25:10.822Z,71.22
2023-05-13T05:27:38.680Z,70.80
2023-05-13T05:30:07.116Z,71.15
2023-05-13T05:32:35.466Z,71.54
2023-05-13T05:35:04.051Z,71.32
2023-05-13T05:37:31.931Z,71.54
2023-05-13T05:39:59.495Z,72.23
2023-05-13T05:42:27.823Z,73.41
2023-05-13T05:44:55.621Z,72.76
2023-05-13T05:47:23.142Z,74.50
2023-05-13T05:49:51.031Z,74.46
2023-05-13T05:52:19.212Z,75.25
2023-05-13T05:54:46.806Z,76.55
2023-05-13T05:57:14.765Z,76.20
2023-05-13T05:59:42.186Z,74.75
2023-05-13T06:02:09.711Z,74.00
2023-05-13T06:04:37.562Z,76.24
2023-05-13T06:07:05.314Z,76.62
2023-05-13T06:09:33.350Z,74.52
2023-05-13T06:12:01.199Z,73.31
2023-05-13T06:14:29.434Z,73.38
2023-05-13T06:16:56.904Z,74.47
2023-05-13T06:19:24.615Z,73.76
2023-05-13T06:21:52.038Z,73.79
2023-05-13T06:24:19.502Z,73.71
2023-05-13T06:26:47.764Z,73.24
2023-05-13T06:29:15.209Z,74.44
2023-05-13T06:31:42.727Z,74.68
2023-05-13T06:34:16.445Z,74.45
2023-05-13T06:36:44.180Z,73.67
2023-05-13T06:39:12.537Z,74.61
2023-05-13T06:41:41.004Z,73.75
2023-05-13T06:44:08.647Z,72.94
2023-05-13T06:46:39.401Z,72.26
2023-05-13T06:49:06.919Z,74.28
2023-05-13T06:51:34.974Z,74.54
2023-05-13T06:54:02.692Z,73.65
2023-05-13T06:56:30.411Z,74.40
2023-05-13T06:58:57.905Z,76.61
2023-05-13T07:01:26.219Z,75.22
2023-05-13T07:03:54.669Z,75.74
2023-05-13T07:06:22.325Z,76.17
2023-05-13T07:08:50.038Z,79.29
2023-05-13T07:11:17.435Z,77.54
2023-05-13T07:13:45.185Z,74.60
2023-05-13T07:16:13.922Z,75.60
2023-05-13T07:18:41.452Z,75.29
2023-05-13T07:21:08.991Z,75.47
2023-05-13T07:23:36.775Z,72.95
2023-05-13T07:26:04.404Z,73.29
2023-05-13T07:28:31.901Z,73.76
2023-05-13T07:30:59.915Z,73.39
2023-05-13T07:33:27.966Z,72.38
2023-05-13T07:35:55.377Z,71.40
2023-05-13T07:38:23.400Z,71.65
2023-05-13T07:40:50.918Z,71.75
2023-05-13T07:43:23.792Z,74.39
2023-05-13T07:45:51.647Z,73.18
2023-05-13T07:48:19.562Z,72.02
2023-05-13T07:50:47.210Z,70.54
2023-05-13T07:53:15.493Z,71.35
2023-05-13T07:55:43.993Z,68.86
2023-05-13T07:58:11.475Z,70.78
2023-05-13T08:00:39.437Z,69.58
2023-05-13T08:03:07.593Z,70.60
2023-05-13T08:05:35.235Z,69.93
2023-05-13T08:08:03.904Z,69.43
2023-05-13T08:10:31.718Z,71.00
2023-05-13T08:13:01.003Z,70.55
2023-05-13T08:15:28.499Z,70.12
2023-05-13T08:17:56.314Z,70.22
2023-05-13T08:20:29.867Z,69.01
2023-05-13T08:22:58.450Z,69.04
2023-05-13T08:25:25.965Z,70.46
2023-05-13T08:27:53.621Z,70.87
2023-05-13T08:30:21.411Z,69.88
2023-05-13T08:32:48.917Z,70.33
2023-05-13T08:35:16.489Z,71.19
2023-05-13T08:37:44.254Z,70.68
2023-05-13T08:40:11.963Z,71.57
2023-05-13T08:42:42.521Z,72.04
2023-05-13T08:45:11.168Z,73.46
2023-05-13T08:47:51.287Z,70.95
2023-05-13T08:50:20.120Z,71.04
2023-05-13T08:52:48.015Z,73.50
2023-05-13T08:55:15.920Z,71.73
2023-05-13T08:57:43.619Z,71.55
2023-05-13T09:00:11.849Z,72.08
2023-05-13T09:02:39.457Z,71.83
2023-05-13T09:05:08.708Z,72.05
2023-05-13T09:07:37.336Z,70.90
2023-05-13T09:10:06.275Z,69.42
2023-05-13T09:12:51.866Z,70.24
2023-05-13T09:15:21.888Z,69.60
2023-05-13T09:17:53.341Z,69.88
2023-05-13T09:20:21.775Z,71.38
2023-05-13T09:22:51.799Z,68.81
2023-05-13T09:25:21.204Z,67.42
2023-05-13T09:27:51.914Z,68.37
2023-05-13T09:30:20.904Z,68.65
2023-05-13T09:33:09.201Z,68.75
2023-05-13T09:35:39.306Z,68.47
2023-05-13T09:38:20.043Z,66.52
2023-05-13T09:40:58.112Z,68.32
2023-05-13T09:43:27.849Z,68.84
2023-05-13T09:45:56.818Z,68.48
2023-05-13T09:48:29.576Z,67.66
2023-05-13T09:51:00.168Z,65.71
2023-05-13T09:53:28.511Z,65.98
2023-05-13T09:55:58.756Z,67.99
2023-05-13T09:58:30.945Z,67.93
2023-05-13T10:00:58.788Z,66.88
2023-05-13T10:03:28.699Z,67.71
2023-05-13T10:05:57.194Z,64.73
2023-05-13T10:08:25.030Z,65.00
2023-05-13T10:10:55.592Z,63.72
2023-05-13T10:13:24.830Z,64.01
2023-05-13T10:15:54.638Z,64.84
2023-05-13T10:18:23.960Z,64.49
2023-05-13T10:20:54.912Z,66.43
2023-05-13T10:23:24.460Z,66.45
2023-05-13T10:25:54.236Z,64.41
2023-05-13T10:28:22.610Z,64.49
2023-05-13T10:30:53.858Z,64.32
2023-05-13T10:33:21.870Z,62.38
2023-05-13T10:35:58.777Z,63.07
2023-05-13T10:39:00.714Z,63.36
2023-05-13T10:42:22.551Z,64.17
2023-05-13T10:44:54.698Z,64.28
2023-05-13T10:47:22.792Z,65.85
2023-05-13T10:49:52.280Z,65.23
2023-05-13T10:52:20.153Z,64.61
2023-05-13T10:55:04.730Z,66.60
2023-05-13T10:57:38.559Z,65.74
2023-05-13T11:00:18.024Z,65.38
2023-05-13T11:02:45.905Z,64.49
2023-05-13T11:05:21.188Z,65.91
2023-05-13T11:07:56.566Z,64.79
2023-05-13T11:10:30.072Z,63.32
2023-05-13T11:13:35.627Z,62.44
2023-05-13T11:16:06.227Z,64.49
2023-05-13T11:18:35.049Z,65.49
2023-05-13T11:21:07.061Z,65.23
2023-05-13T11:23:53.232Z,66.28
2023-05-13T11:26:21.541Z,64.05
2023-05-13T11:29:04.047Z,64.08
2023-05-13T11:31:53.184Z,64.00
2023-05-13T11:34:20.757Z,63.22
2023-05-13T11:37:08.932Z,64.72
2023-05-13T11:39:38.733Z,62.23
2023-05-13T11:42:10.349Z,62.28
2023-05-13T11:44:45.562Z,62.44
2023-05-13T11:47:13.359Z,61.74
2023-05-13T11:49:40.766Z,61.52
2023-05-13T11:52:16.088Z,60.53
2023-05-13T11:54:53.592Z,60.47
2023-05-13T11:57:28.298Z,60.67
2023-05-13T11:59:58.717Z,60.79
2023-05-13T12:02:28.165Z,62.28
2023-05-13T12:04:58.446Z,61.52
2023-05-13T12:07:26.851Z,61.80
2023-05-13T12:09:57.517Z,62.74
2023-05-13T12:12:25.766Z,61.18
2023-05-13T12:14:54.276Z,61.79
2023-05-13T12:17:22.084Z,59.66
2023-05-13T12:20:08.611Z,60.54
2023-05-13T12:22:37.148Z,59.67
2023-05-13T12:25:37.117Z,59.54
2023-05-13T12:28:22.758Z,61.17
2023-05-13T12:30:52.635Z,60.81
2023-05-13T12:33:24.100Z,61.87
2023-05-13T12:35:54.017Z,59.94
2023-05-13T12:38:24.129Z,59.14
2023-05-13T12:40:53.141Z,60.35
2023-05-13T12:43:20.671Z,61.37
2023-05-13T12:45:53.979Z,59.79
2023-05-13T12:48:24.213Z,59.77
2023-05-13T12:50:51.678Z,61.46
2023-05-13T12:53:19.119Z,61.63
2023-05-13T12:55:46.882Z,59.96
2023-05-13T12:58:14.357Z,59.67
2023-05-13T13:00:42.094Z,59.57
2023-05-13T13:03:10.009Z,60.75
2023-05-13T13:05:37.686Z,59.25
2023-05-13T13:08:05.490Z,60.30
2023-05-13T13:10:33.295Z,59.72
2023-05-13T13:13:00.707Z,59.77
2023-05-13T13:15:28.236Z,60.88
2023-05-13T13:17:56.038Z,60.21
2023-05-13T13:20:23.625Z,58.91
2023-05-13T13:22:51.087Z,60.42
2023-05-13T13:25:18.940Z,61.71
2023-05-13T13:27:46.495Z,59.68
2023-05-13T13:30:14.616Z,59.71
2023-05-13T13:32:42.365Z,58.98
2023-05-13T13:35:10.186Z,59.56
2023-05-13T13:37:38.123Z,58.99
2023-05-13T13:40:06.501Z,57.89
2023-05-13T13:45:09.109Z,61.94
2023-05-13T13:47:36.642Z,59.66
2023-05-13T13:50:04.604Z,59.26
2023-05-13T13:52:32.558Z,59.48
2023-05-13T13:55:00.466Z,58.40
2023-05-13T13:57:27.981Z,59.43
2023-05-13T13:59:55.767Z,60.22
2023-05-13T14:02:23.515Z,58.78
2023-05-13T14:04:52.283Z,57.81
2023-05-13T14:07:20.253Z,58.35
2023-05-13T14:09:48.578Z,57.73
2023-05-13T14:12:16.376Z,59.07
2023-05-13T14:14:43.790Z,57.83
2023-05-13T14:17:12.348Z,58.25
2023-05-13T14:19:42.444Z,58.17
2023-05-13T14:22:09.970Z,57.10
2023-05-13T14:24:37.404Z,57.30
2023-05-13T14:27:05.630Z,57.12
2023-05-13T14:29:33.219Z,57.07
2023-05-13T14:32:03.054Z,58.84
2023-05-13T14:34:30.794Z,59.83
2023-05-13T14:36:58.233Z,59.23
2023-05-13T14:39:25.628Z,59.62
2023-05-13T14:41:53.314Z,58.74
2023-05-13T14:44:20.774Z,61.48
2023-05-13T14:46:48.337Z,60.31
2023-05-13T14:49:16.296Z,59.80
2023-05-13T14:51:43.940Z,58.77
2023-05-13T14:54:11.419Z,58.59
2023-05-13T14:56:39.099Z,58.32
2023-05-13T14:59:06.559Z,58.09
2023-05-13T15:01:34.266Z,59.15
2023-05-13T15:04:02.258Z,59.12
2023-05-13T15:06:29.738Z,58.50
2023-05-13T15:08:57.485Z,58.77
2023-05-13T15:11:27.746Z,57.74
2023-05-13T15:13:55.572Z,57.81
2023-05-13T15:16:23.103Z,58.77
2023-05-13T15:18:50.920Z,59.54
2023-05-13T15:21:18.491Z,60.76
2023-05-13T15:23:45.938Z,59.23
2023-05-13T15:26:13.805Z,59.14
2023-05-13T15:28:41.236Z,58.86
2023-05-13T15:31:08.795Z,59.02
2023-05-13T15:33:36.599Z,58.97
2023-05-13T15:36:05.741Z,58.93
2023-05-13T15:38:33.193Z,60.37
2023-05-13T15:41:02.789Z,59.21
2023-05-13T15:43:32.071Z,58.33
2023-05-13T15:46:00.301Z,58.71
2023-05-13T15:48:29.488Z,57.67
2023-05-13T15:50:56.980Z,57.61
2023-05-13T15:53:24.474Z,57.54
2023-05-13T15:55:52.972Z,59.37
2023-05-13T15:58:20.514Z,60.40
2023-05-13T16:00:47.986Z,60.57
2023-05-13T16:03:17.067Z,59.53
2023-05-13T16:05:45.961Z,59.28
2023-05-13T16:08:13.432Z,58.15
2023-05-13T16:10:41.174Z,60.18
2023-05-13T16:13:08.897Z,58.68
2023-05-13T16:15:36.319Z,57.67
2023-05-13T16:18:04.276Z,56.96
2023-05-13T16:20:31.685Z,57.15
2023-05-13T16:22:59.287Z,56.74
2023-05-13T16:25:27.302Z,58.07
2023-05-13T16:27:56.602Z,57.55
2023-05-13T16:30:24.280Z,57.76
2023-05-13T16:32:55.033Z,56.92
2023-05-13T16:35:22.748Z,56.95
2023-05-13T16:37:50.592Z,57.68
2023-05-13T16:40:18.374Z,56.88
2023-05-13T16:42:46.525Z,56.63
2023-05-13T16:45:14.056Z,55.84
2023-05-13T16:47:41.865Z,56.02
2023-05-13T16:50:09.821Z,55.58
2023-05-13T16:52:37.294Z,55.40
2023-05-13T16:55:05.812Z,55.55
2023-05-13T16:57:33.309Z,55.73
2023-05-13T17:00:00.800Z,55.12
2023-05-13T17:02:28.688Z,54.68
2023-05-13T17:04:56.212Z,55.67
2023-05-13T17:07:23.725Z,56.55
2023-05-13T17:09:51.430Z,57.13
2023-05-13T17:12:18.879Z,57.95
2023-05-13T17:14:46.323Z,56.18
2023-05-13T17:17:14.195Z,56.86
2023-05-13T17:19:42.431Z,56.31
2023-05-13T17:22:09.991Z,55.77
2023-05-13T17:24:38.572Z,55.70
2023-05-13T17:27:06.543Z,56.25
2023-05-13T17:29:33.996Z,55.36
2023-05-13T17:32:01.756Z,56.64
2023-05-13T17:34:29.253Z,56.06
2023-05-13T17:36:56.707Z,57.66
2023-05-13T17:39:24.487Z,56.34
2023-05-13T17:41:52.160Z,55.56
2023-05-13T17:44:20.129Z,56.96
2023-05-13T17:46:48.063Z,57.66
2023-05-13T17:49:15.748Z,56.81
2023-05-13T17:51:43.296Z,56.63
2023-05-13T17:54:11.501Z,56.52
2023-05-13T17:56:38.993Z,56.47
2023-05-13T17:59:07.421Z,55.64
2023-05-13T18:01:35.223Z,55.91
2023-05-13T18:04:03.009Z,57.44
2023-05-13T18:06:31.196Z,56.12
2023-05-13T18:08:58.804Z,55.54
2023-05-13T18:11:26.720Z,56.55
2023-05-13T18:13:54.127Z,56.58
2023-05-13T18:16:21.709Z,57.51
2023-05-13T18:18:49.517Z,56.59
2023-05-13T18:21:17.057Z,56.35
2023-05-13T18:23:46.140Z,55.93
2023-05-13T18:26:13.856Z,55.51
2023-05-13T18:28:41.756Z,55.32
2023-05-13T18:31:09.239Z,55.07
2023-05-13T18:33:37.000Z,55.23
2023-05-13T18:36:04.750Z,55.04
2023-05-13T18:38:32.239Z,54.96
2023-05-13T18:41:03.235Z,54.72
2023-05-13T18:43:30.784Z,54.57
2023-05-13T18:45:58.465Z,54.14
2023-05-13T18:48:26.338Z,54.13
2023-05-13T18:50:53.915Z,54.27
2023-05-13T18:53:21.700Z,54.21
2023-05-13T18:55:49.634Z,54.11
2023-05-13T18:58:17.336Z,54.55
2023-05-13T19:00:44.870Z,54.76
2023-05-13T19:03:12.825Z,54.63
2023-05-13T19:05:40.317Z,54.89
2023-05-13T19:08:09.043Z,54.73
2023-05-13T19:10:39.674Z,54.57
2023-05-13T19:13:08.002Z,54.67
2023-05-13T19:15:35.686Z,54.99
2023-05-13T19:18:03.486Z,54.93
2023-05-13T19:20:31.224Z,55.02
2023-05-13T19:22:58.695Z,55.59
2023-05-13T19:25:26.429Z,55.40
2023-05-13T19:27:54.232Z,57.03
2023-05-13T19:30:21.945Z,57.05
2023-05-13T19:32:50.838Z,58.96
2023-05-13T19:35:18.336Z,59.80
2023-05-13T19:37:45.775Z,60.37
2023-05-13T19:40:13.571Z,58.18
2023-05-13T19:42:41.372Z,57.51
2023-05-13T19:45:10.677Z,58.47
2023-05-13T19:47:38.756Z,58.11
2023-05-13T19:50:06.625Z,57.44
2023-05-13T19:52:34.105Z,58.52
2023-05-13T19:55:01.867Z,60.40
2023-05-13T19:57:30.173Z,58.78
2023-05-13T19:59:58.674Z,58.06
2023-05-13T20:02:26.427Z,57.71
2023-05-13T20:04:54.504Z,58.33
2023-05-13T20:07:21.992Z,57.42
2023-05-13T20:09:49.410Z,57.47
2023-05-13T20:12:17.211Z,57.08
2023-05-13T20:14:49.633Z,57.25
2023-05-13T20:17:21.455Z,57.57
2023-05-13T20:19:50.053Z,57.12
2023-05-13T20:22:18.939Z,57.26
2023-05-13T20:24:47.948Z,56.82
2023-05-13T20:27:16.576Z,57.00
2023-05-13T20:29:46.923Z,57.59
2023-05-13T20:32:16.750Z,57.27
2023-05-13T20:34:44.872Z,56.85
2023-05-13T20:37:12.442Z,57.02
2023-05-13T20:39:39.882Z,57.84
2023-05-13T20:42:07.874Z,58.19
2023-05-13T20:44:35.483Z,59.45
2023-05-13T20:47:03.313Z,58.50
2023-05-13T20:49:31.426Z,58.48
2023-05-13T20:52:03.667Z,58.96
2023-05-13T20:54:31.590Z,58.58
2023-05-13T20:57:01.116Z,58.83
2023-05-13T20:59:28.593Z,58.60
2023-05-13T21:01:56.400Z,58.32
2023-05-13T21:04:25.505Z,58.53
2023-05-13T21:06:53.149Z,59.71
2023-05-13T21:09:20.905Z,59.32
2023-05-13T21:11:48.361Z,59.62
2023-05-13T21:14:16.019Z,59.57
2023-05-13T21:16:43.857Z,58.63
2023-05-13T21:19:24.382Z,58.69
2023-05-13T21:21:52.134Z,58.95
2023-05-13T21:24:19.835Z,58.87
2023-05-13T21:26:49.148Z,58.55
2023-05-13T21:29:18.898Z,58.33
2023-05-13T21:31:47.480Z,58.31
2023-05-13T21:34:15.057Z,57.77
2023-05-13T21:36:42.795Z,57.65
2023-05-13T21:39:10.602Z,57.59
2023-05-13T21:41:38.118Z,57.40
2023-05-13T21:44:06.167Z,57.37
2023-05-13T21:46:33.641Z,58.06
2023-05-13T21:49:01.607Z,57.94
2023-05-13T21:51:29.540Z,58.14
2023-05-13T21:53:56.921Z,58.81
2023-05-13T21:56:24.368Z,58.78
2023-05-13T21:58:52.050Z,58.82
2023-05-13T22:01:19.674Z,58.62
2023-05-13T22:03:47.395Z,59.41
2023-05-13T22:06:14.790Z,60.11
2023-05-13T22:08:42.229Z,60.03
2023-05-13T22:11:11.354Z,61.69
2023-05-13T22:13:38.858Z,60.65
2023-05-13T22:16:06.553Z,61.13
2023-05-13T22:18:34.506Z,60.32
2023-05-13T22:21:02.204Z,60.16
2023-05-13T22:23:29.716Z,60.47
2023-05-13T22:25:57.472Z,60.39
2023-05-13T22:28:25.025Z,61.08
2023-05-13T22:30:52.448Z,61.81
2023-05-13T22:33:20.155Z,60.71
2023-05-13T22:35:47.798Z,60.99
2023-05-13T22:38:15.260Z,61.04
2023-05-13T22:40:43.013Z,62.13
2023-05-13T22:43:10.573Z,61.20
2023-05-13T22:45:38.097Z,62.79
2023-05-13T22:48:06.135Z,63.52
2023-05-13T22:50:33.639Z,62.26
2023-05-13T22:53:01.120Z,62.33
2023-05-13T22:55:28.841Z,62.25
2023-05-13T22:57:56.211Z,61.95
2023-05-13T23:00:23.896Z,61.85
2023-05-13T23:02:51.774Z,61.88
2023-05-13T23:05:19.264Z,62.30
2023-05-13T23:07:46.803Z,61.91
2023-05-13T23:10:14.520Z,61.80
2023-05-13T23:12:41.982Z,62.45
2023-05-13T23:15:11.666Z,62.48
2023-05-13T23:17:39.596Z,61.65
2023-05-13T23:20:07.578Z,61.79
2023-05-13T23:22:35.302Z,63.18
2023-05-13T23:25:03.734Z,62.33
2023-05-13T23:27:31.836Z,61.93
2023-05-13T23:29:59.673Z,62.41
2023-05-13T23:32:27.378Z,63.30
2023-05-13T23:34:54.938Z,62.84
2023-05-13T23:37:22.543Z,63.06
2023-05-13T23:39:50.265Z,61.60
2023-05-13T23:42:17.663Z,62.00
2023-05-13T23:44:45.105Z,61.80
2023-05-13T23:47:13.549Z,62.09
2023-05-13T23:49:41.083Z,61.89
2023-05-13T23:52:08.537Z,62.57
2023-05-13T23:54:36.307Z,62.86
2023-05-13T23:57:03.992Z,62.98
2023-05-13T23:59:31.442Z,62.94
